createdAt,value
2017-12-22T00:00:00.714Z,0
2017-12-22T00:00:41.332Z,0
2017-12-22T00:01:21.916Z,0
2017-12-22T00:02:02.507Z,0
2017-12-22T00:02:43.070Z,0
2017-12-22T00:03:23.671Z,0
2017-12-22T00:04:04.262Z,0
2017-12-22T00:04:44.835Z,0
2017-12-22T00:05:25.469Z,0
2017-12-22T00:06:06.040Z,0
2017-12-22T00:06:46.609Z,0
2017-12-22T00:07:27.204Z,0
2017-12-22T00:08:07.777Z,0
2017-12-22T00:08:48.377Z,0
2017-12-22T00:09:28.947Z,0
2017-12-22T00:10:09.536Z,0
2017-12-22T00:10:50.096Z,0
2017-12-22T00:11:30.685Z,0
2017-12-22T00:12:11.297Z,0
2017-12-22T00:12:51.901Z,0
2017-12-22T00:13:32.473Z,0
2017-12-22T00:14:13.076Z,0
2017-12-22T00:14:53.666Z,0
2017-12-22T00:15:34.232Z,0
2017-12-22T00:16:14.805Z,0
2017-12-22T00:16:55.394Z,0
2017-12-22T00:17:36.016Z,0
2017-12-22T00:18:16.580Z,0
2017-12-22T00:18:57.153Z,0
2017-12-22T00:19:37.724Z,0
2017-12-22T00:20:18.307Z,0
2017-12-22T00:20:58.885Z,0
2017-12-22T00:21:39.462Z,0
2017-12-22T00:22:20.030Z,0
2017-12-22T00:23:00.602Z,0
2017-12-22T00:23:41.174Z,0
2017-12-22T00:24:21.758Z,0
2017-12-22T00:25:02.325Z,0
2017-12-22T00:25:42.897Z,0
2017-12-22T00:26:23.494Z,0
2017-12-22T00:27:04.094Z,0
2017-12-22T00:27:44.665Z,0
2017-12-22T00:28:25.226Z,0
2017-12-22T00:29:05.801Z,0
2017-12-22T00:29:46.350Z,0
2017-12-22T00:30:26.940Z,0
2017-12-22T00:31:07.514Z,0
2017-12-22T00:31:48.105Z,0
2017-12-22T00:32:28.689Z,0
2017-12-22T00:33:09.254Z,0
2017-12-22T00:33:49.821Z,0
2017-12-22T00:34:30.421Z,0
2017-12-22T00:35:11.013Z,0
2017-12-22T00:35:51.588Z,0
2017-12-22T00:36:32.170Z,0
2017-12-22T00:37:12.771Z,0
2017-12-22T00:37:53.342Z,0
2017-12-22T00:38:33.901Z,0
2017-12-22T00:39:14.476Z,0
2017-12-22T00:39:55.034Z,0
2017-12-22T00:40:35.597Z,0
2017-12-22T00:41:16.167Z,0
2017-12-22T00:41:56.736Z,0
2017-12-22T00:42:37.307Z,0
2017-12-22T00:43:17.891Z,0
2017-12-22T00:43:58.451Z,0
2017-12-22T00:44:39.012Z,0
2017-12-22T00:45:19.579Z,0
2017-12-22T00:46:00.145Z,0
2017-12-22T00:46:40.713Z,0
2017-12-22T00:47:21.270Z,0
2017-12-22T00:48:01.837Z,0
2017-12-22T00:48:42.436Z,0
2017-12-22T00:49:22.999Z,0
2017-12-22T00:50:03.571Z,0
2017-12-22T00:50:44.141Z,0
2017-12-22T00:51:24.723Z,0
2017-12-22T00:52:05.281Z,0
2017-12-22T00:52:45.846Z,0
2017-12-22T00:53:26.440Z,0
2017-12-22T00:54:07.008Z,0
2017-12-22T00:54:47.590Z,0
2017-12-22T00:55:28.161Z,0
2017-12-22T00:56:08.756Z,0
2017-12-22T00:56:49.359Z,0
2017-12-22T00:57:29.934Z,0
2017-12-22T00:58:10.508Z,0
2017-12-22T00:58:51.081Z,0
2017-12-22T00:59:31.650Z,0
2017-12-22T01:00:12.220Z,0
2017-12-22T01:00:52.789Z,0
2017-12-22T01:01:33.376Z,0
2017-12-22T01:02:13.930Z,0
2017-12-22T01:02:54.497Z,0
2017-12-22T01:03:35.081Z,0
2017-12-22T01:04:15.646Z,0
2017-12-22T01:04:56.217Z,0
2017-12-22T01:05:36.793Z,0
2017-12-22T01:06:17.380Z,0
2017-12-22T01:06:57.950Z,0
2017-12-22T01:07:38.546Z,0
2017-12-22T01:08:19.138Z,0
2017-12-22T01:08:59.707Z,0
2017-12-22T01:09:40.266Z,0
2017-12-22T01:10:20.872Z,0
2017-12-22T01:11:01.479Z,0
2017-12-22T01:11:42.054Z,0
2017-12-22T01:12:22.607Z,0
2017-12-22T01:13:03.174Z,0
2017-12-22T01:13:43.737Z,0
2017-12-22T01:14:24.308Z,0
2017-12-22T01:15:04.871Z,0
2017-12-22T01:15:45.435Z,0
2017-12-22T01:16:26.011Z,0
2017-12-22T01:17:06.595Z,0
2017-12-22T01:17:47.165Z,0
2017-12-22T01:18:27.726Z,0
2017-12-22T01:19:08.324Z,0
2017-12-22T01:19:48.884Z,0
2017-12-22T01:20:29.485Z,0
2017-12-22T01:21:10.083Z,0
2017-12-22T01:21:50.696Z,0
2017-12-22T01:22:31.263Z,0
2017-12-22T01:23:11.828Z,0
2017-12-22T01:23:52.391Z,0
2017-12-22T01:24:32.950Z,0
2017-12-22T01:25:13.534Z,0
2017-12-22T01:25:54.102Z,0
2017-12-22T01:26:34.675Z,0
2017-12-22T01:27:15.245Z,0
2017-12-22T01:27:55.845Z,0
2017-12-22T01:28:36.421Z,0
2017-12-22T01:29:17.006Z,0
2017-12-22T01:29:57.599Z,0
2017-12-22T01:30:38.156Z,0
2017-12-22T01:31:18.729Z,0
2017-12-22T01:31:59.315Z,0
2017-12-22T01:32:39.868Z,0
2017-12-22T01:33:20.420Z,0
2017-12-22T01:34:00.988Z,0
2017-12-22T01:34:41.547Z,0
2017-12-22T01:35:22.114Z,0
2017-12-22T01:36:02.690Z,0
2017-12-22T01:36:43.270Z,0
2017-12-22T01:37:23.852Z,0
2017-12-22T01:38:04.422Z,0
2017-12-22T01:38:45.034Z,0
2017-12-22T01:39:25.627Z,0
2017-12-22T01:40:06.196Z,0
2017-12-22T01:40:46.779Z,0
2017-12-22T01:41:27.362Z,0
2017-12-22T01:42:07.924Z,0
2017-12-22T01:42:48.515Z,0
2017-12-22T01:43:29.080Z,0
2017-12-22T01:44:09.688Z,0
2017-12-22T01:44:50.262Z,0
2017-12-22T01:45:38.094Z,0
2017-12-22T01:46:18.669Z,0
2017-12-22T01:46:59.237Z,0
2017-12-22T01:47:39.822Z,0
2017-12-22T01:48:20.379Z,0
2017-12-22T01:49:00.961Z,0
2017-12-22T01:49:41.539Z,0
2017-12-22T01:50:22.131Z,0
2017-12-22T01:51:02.723Z,0
2017-12-22T01:51:43.317Z,0
2017-12-22T01:52:23.875Z,0
2017-12-22T01:53:04.449Z,0
2017-12-22T01:53:45.007Z,0
2017-12-22T01:54:25.613Z,0
2017-12-22T01:55:06.212Z,0
2017-12-22T01:55:46.782Z,0
2017-12-22T01:56:27.371Z,0
2017-12-22T01:57:07.966Z,0
2017-12-22T01:57:48.573Z,0
2017-12-22T01:58:29.165Z,0
2017-12-22T01:59:09.750Z,0
2017-12-22T01:59:50.314Z,0
2017-12-22T02:00:30.927Z,0
2017-12-22T02:01:11.491Z,0
2017-12-22T02:01:52.083Z,0
2017-12-22T02:02:32.662Z,0
2017-12-22T02:03:13.224Z,0
2017-12-22T02:03:53.814Z,0
2017-12-22T02:04:34.380Z,0
2017-12-22T02:05:14.952Z,0
2017-12-22T02:05:55.507Z,0
2017-12-22T02:06:36.070Z,0
2017-12-22T02:07:16.655Z,0
2017-12-22T02:07:57.241Z,0
2017-12-22T02:08:37.801Z,0
2017-12-22T02:09:18.398Z,0
2017-12-22T02:09:58.991Z,0
2017-12-22T02:10:39.577Z,0
2017-12-22T02:11:20.145Z,0
2017-12-22T02:12:00.743Z,0
2017-12-22T02:12:41.346Z,0
2017-12-22T02:13:21.957Z,0
2017-12-22T02:14:02.544Z,0
2017-12-22T02:14:43.108Z,0
2017-12-22T02:15:23.673Z,0
2017-12-22T02:16:04.260Z,0
2017-12-22T02:16:44.882Z,0
2017-12-22T02:17:25.391Z,0
2017-12-22T02:18:05.974Z,0
2017-12-22T02:18:46.552Z,0
2017-12-22T02:19:27.146Z,0
2017-12-22T02:20:07.708Z,0
2017-12-22T02:20:48.271Z,0
2017-12-22T02:21:28.844Z,0
2017-12-22T02:22:09.414Z,0
2017-12-22T02:22:49.973Z,0
2017-12-22T02:23:30.537Z,0
2017-12-22T02:24:11.145Z,0
2017-12-22T02:24:51.754Z,0
2017-12-22T02:25:32.337Z,0
2017-12-22T02:26:12.942Z,0
2017-12-22T02:26:53.532Z,0
2017-12-22T02:27:34.118Z,0
2017-12-22T02:28:14.697Z,0
2017-12-22T02:28:55.261Z,0
2017-12-22T02:29:35.821Z,0
2017-12-22T02:30:16.396Z,0
2017-12-22T02:30:56.988Z,0
2017-12-22T02:31:37.560Z,0
2017-12-22T02:32:18.131Z,0
2017-12-22T02:32:58.706Z,0
2017-12-22T02:33:39.266Z,0
2017-12-22T02:34:19.838Z,0
2017-12-22T02:35:00.413Z,0
2017-12-22T02:35:40.994Z,0
2017-12-22T02:36:21.569Z,0
2017-12-22T02:37:02.136Z,0
2017-12-22T02:37:42.709Z,0
2017-12-22T02:38:23.294Z,0
2017-12-22T02:39:03.857Z,0
2017-12-22T02:39:44.412Z,0
2017-12-22T02:40:24.982Z,0
2017-12-22T02:41:05.550Z,0
2017-12-22T02:41:46.130Z,0
2017-12-22T02:42:26.696Z,0
2017-12-22T02:43:07.296Z,0
2017-12-22T02:43:47.895Z,0
2017-12-22T02:44:28.480Z,0
2017-12-22T02:45:09.037Z,0
2017-12-22T02:45:49.614Z,0
2017-12-22T02:46:30.216Z,0
2017-12-22T02:47:10.790Z,0
2017-12-22T02:47:51.374Z,0
2017-12-22T02:48:31.966Z,0
2017-12-22T02:49:12.554Z,0
2017-12-22T02:49:53.127Z,0
2017-12-22T02:50:33.695Z,0
2017-12-22T02:51:14.267Z,0
2017-12-22T02:51:54.838Z,0
2017-12-22T02:52:35.425Z,0
2017-12-22T02:53:15.999Z,0
2017-12-22T02:53:56.568Z,0
2017-12-22T02:54:37.148Z,0
2017-12-22T02:55:17.710Z,0
2017-12-22T02:55:58.281Z,0
2017-12-22T02:56:38.858Z,0
2017-12-22T02:57:19.428Z,0
2017-12-22T02:57:59.979Z,0
2017-12-22T02:58:40.546Z,0
2017-12-22T02:59:21.113Z,0
2017-12-22T03:00:01.691Z,0
2017-12-22T03:00:42.265Z,0
2017-12-22T03:01:22.844Z,0
2017-12-22T03:02:03.448Z,0
2017-12-22T03:02:44.028Z,0
2017-12-22T03:03:24.605Z,0
2017-12-22T03:04:05.188Z,0
2017-12-22T03:04:45.767Z,0
2017-12-22T03:05:26.366Z,0
2017-12-22T03:06:06.944Z,0
2017-12-22T03:06:47.497Z,0
2017-12-22T03:07:28.099Z,0
2017-12-22T03:08:08.663Z,0
2017-12-22T03:08:49.236Z,0
2017-12-22T03:09:29.828Z,0
2017-12-22T03:10:10.392Z,0
2017-12-22T03:10:50.971Z,0
2017-12-22T03:11:31.541Z,0
2017-12-22T03:12:12.130Z,0
2017-12-22T03:12:52.706Z,0
2017-12-22T03:13:33.275Z,0
2017-12-22T03:14:13.845Z,0
2017-12-22T03:14:54.419Z,0
2017-12-22T03:15:34.978Z,0
2017-12-22T03:16:15.534Z,0
2017-12-22T03:16:56.112Z,0
2017-12-22T03:17:36.683Z,0
2017-12-22T03:18:17.256Z,0
2017-12-22T03:18:57.823Z,0
2017-12-22T03:19:38.397Z,0
2017-12-22T03:20:18.985Z,0
2017-12-22T03:20:59.577Z,0
2017-12-22T03:21:40.157Z,0
2017-12-22T03:22:20.750Z,0
2017-12-22T03:23:01.325Z,0
2017-12-22T03:23:41.898Z,0
2017-12-22T03:24:22.512Z,0
2017-12-22T03:25:03.092Z,0
2017-12-22T03:25:43.667Z,0
2017-12-22T03:26:24.260Z,0
2017-12-22T03:27:04.866Z,0
2017-12-22T03:27:45.449Z,0
2017-12-22T03:28:26.029Z,0
2017-12-22T03:29:06.605Z,0
2017-12-22T03:29:47.175Z,0
2017-12-22T03:30:27.757Z,0
2017-12-22T03:31:08.320Z,0
2017-12-22T03:31:48.894Z,0
2017-12-22T03:32:29.474Z,0
2017-12-22T03:33:10.059Z,0
2017-12-22T03:33:50.632Z,0
2017-12-22T03:34:31.204Z,0
2017-12-22T03:35:11.780Z,0
2017-12-22T03:35:52.352Z,0
2017-12-22T03:36:32.930Z,0
2017-12-22T03:37:13.495Z,0
2017-12-22T03:37:54.077Z,0
2017-12-22T03:38:34.648Z,0
2017-12-22T03:39:15.234Z,0
2017-12-22T03:39:55.814Z,0
2017-12-22T03:40:36.403Z,0
2017-12-22T03:41:17.003Z,0
2017-12-22T03:41:57.568Z,0
2017-12-22T03:42:38.157Z,0
2017-12-22T03:43:18.726Z,0
2017-12-22T03:43:59.324Z,0
2017-12-22T03:44:39.887Z,0
2017-12-22T03:45:20.458Z,0
2017-12-22T03:46:01.011Z,0
2017-12-22T03:46:41.591Z,0
2017-12-22T03:47:22.196Z,0
2017-12-22T03:48:02.753Z,0
2017-12-22T03:48:43.326Z,0
2017-12-22T03:49:23.904Z,0
2017-12-22T03:50:04.495Z,0
2017-12-22T03:50:45.066Z,0
2017-12-22T03:51:25.630Z,0
2017-12-22T03:52:06.220Z,0
2017-12-22T03:52:46.790Z,0
2017-12-22T03:53:27.410Z,0
2017-12-22T03:54:07.993Z,0
2017-12-22T03:54:48.587Z,0
2017-12-22T03:55:29.166Z,0
2017-12-22T03:56:09.758Z,0
2017-12-22T03:56:50.348Z,0
2017-12-22T03:57:30.911Z,0
2017-12-22T03:58:11.488Z,0
2017-12-22T03:58:52.056Z,0
2017-12-22T03:59:32.633Z,0
2017-12-22T04:00:13.204Z,0
2017-12-22T04:00:53.801Z,0
2017-12-22T04:01:34.376Z,0
2017-12-22T04:02:14.960Z,0
2017-12-22T04:02:55.514Z,0
2017-12-22T04:03:36.078Z,0
2017-12-22T04:04:16.651Z,0
2017-12-22T04:04:57.208Z,0
2017-12-22T04:05:37.789Z,0
2017-12-22T04:06:18.349Z,0
2017-12-22T04:06:58.980Z,0
2017-12-22T04:07:39.556Z,0
2017-12-22T04:08:20.145Z,0
2017-12-22T04:09:00.722Z,0
2017-12-22T04:09:41.275Z,0
2017-12-22T04:10:21.839Z,0
2017-12-22T04:11:02.432Z,0
2017-12-22T04:11:43.002Z,0
2017-12-22T04:12:23.572Z,0
2017-12-22T04:13:04.144Z,0
2017-12-22T04:13:44.717Z,0
2017-12-22T04:14:25.293Z,0
2017-12-22T04:15:05.914Z,0
2017-12-22T04:15:46.493Z,0
2017-12-22T04:16:27.065Z,0
2017-12-22T04:17:07.689Z,0
2017-12-22T04:17:48.291Z,0
2017-12-22T04:18:28.910Z,0
2017-12-22T04:19:09.501Z,0
2017-12-22T04:19:50.059Z,0
2017-12-22T04:20:30.628Z,0
2017-12-22T04:21:11.190Z,0
2017-12-22T04:21:51.754Z,0
2017-12-22T04:22:32.334Z,0
2017-12-22T04:23:12.925Z,0
2017-12-22T04:23:53.486Z,0
2017-12-22T04:24:34.057Z,0
2017-12-22T04:25:14.651Z,0
2017-12-22T04:25:55.218Z,0
2017-12-22T04:26:35.796Z,0
2017-12-22T04:27:16.370Z,0
2017-12-22T04:27:56.934Z,0
2017-12-22T04:28:37.492Z,0
2017-12-22T04:29:18.052Z,0
2017-12-22T04:29:58.656Z,0
2017-12-22T04:30:39.233Z,0
2017-12-22T04:31:19.810Z,0
2017-12-22T04:32:00.405Z,0
2017-12-22T04:32:41.010Z,0
2017-12-22T04:33:21.587Z,0
2017-12-22T04:34:02.147Z,0
2017-12-22T04:34:42.728Z,0
2017-12-22T04:35:23.331Z,0
2017-12-22T04:36:03.929Z,0
2017-12-22T04:36:44.533Z,0
2017-12-22T04:37:25.095Z,0
2017-12-22T04:38:05.676Z,0
2017-12-22T04:38:46.266Z,0
2017-12-22T04:39:26.832Z,0
2017-12-22T04:40:07.423Z,0
2017-12-22T04:40:47.999Z,0
2017-12-22T04:41:28.613Z,0
2017-12-22T04:42:09.163Z,0
2017-12-22T04:42:49.739Z,0
2017-12-22T04:43:30.350Z,0
2017-12-22T04:44:10.932Z,0
2017-12-22T04:44:51.511Z,0
2017-12-22T04:45:32.081Z,0
2017-12-22T04:46:12.646Z,0
2017-12-22T04:46:53.248Z,0
2017-12-22T04:47:33.819Z,0
2017-12-22T04:48:14.391Z,0
2017-12-22T04:48:54.949Z,0
2017-12-22T04:49:35.555Z,0
2017-12-22T04:50:16.124Z,0
2017-12-22T04:50:56.702Z,0
2017-12-22T04:51:37.266Z,0
2017-12-22T04:52:17.837Z,0
2017-12-22T04:52:58.413Z,0
2017-12-22T04:53:38.979Z,0
2017-12-22T04:54:19.542Z,0
2017-12-22T04:55:00.117Z,0
2017-12-22T04:55:40.707Z,0
2017-12-22T04:56:21.267Z,0
2017-12-22T04:57:01.843Z,0
2017-12-22T04:57:42.412Z,0
2017-12-22T04:58:22.992Z,0
2017-12-22T04:59:03.613Z,0
2017-12-22T04:59:44.171Z,0
2017-12-22T05:00:24.743Z,0
2017-12-22T05:01:05.313Z,0
2017-12-22T05:01:45.886Z,0
2017-12-22T05:02:26.478Z,0
2017-12-22T05:03:07.103Z,0
2017-12-22T05:03:47.647Z,0
2017-12-22T05:04:28.212Z,0
2017-12-22T05:05:08.833Z,0
2017-12-22T05:05:49.440Z,0
2017-12-22T05:06:30.018Z,0
2017-12-22T05:07:10.579Z,0
2017-12-22T05:07:51.158Z,0
2017-12-22T05:08:31.731Z,0
2017-12-22T05:09:12.339Z,0
2017-12-22T05:09:52.912Z,0
2017-12-22T05:10:33.488Z,0
2017-12-22T05:11:14.047Z,0
2017-12-22T05:11:54.627Z,0
2017-12-22T05:12:35.227Z,0
2017-12-22T05:13:15.817Z,0
2017-12-22T05:13:56.383Z,0
2017-12-22T05:14:36.956Z,0
2017-12-22T05:15:17.530Z,0
2017-12-22T05:15:58.104Z,0
2017-12-22T05:16:38.701Z,0
2017-12-22T05:17:19.282Z,0
2017-12-22T05:17:59.898Z,0
2017-12-22T05:18:40.482Z,0
2017-12-22T05:19:21.064Z,0
2017-12-22T05:20:01.628Z,0
2017-12-22T05:20:42.195Z,0
2017-12-22T05:21:22.787Z,0
2017-12-22T05:22:03.348Z,0
2017-12-22T05:22:43.906Z,0
2017-12-22T05:23:24.585Z,0
2017-12-22T05:24:05.174Z,0
2017-12-22T05:24:45.751Z,0
2017-12-22T05:25:26.326Z,0
2017-12-22T05:26:06.910Z,0
2017-12-22T05:26:47.516Z,4
2017-12-22T05:27:28.116Z,4
2017-12-22T05:28:08.682Z,4
2017-12-22T05:28:49.263Z,4
2017-12-22T05:29:29.866Z,4
2017-12-22T05:30:10.449Z,4
2017-12-22T05:30:51.026Z,4
2017-12-22T05:31:31.678Z,4
2017-12-22T05:32:12.451Z,4
2017-12-22T05:32:52.992Z,4
2017-12-22T05:33:33.569Z,4
2017-12-22T05:34:14.133Z,4
2017-12-22T05:34:55.040Z,4
2017-12-22T05:35:35.649Z,4
2017-12-22T05:36:16.224Z,4
2017-12-22T05:36:56.808Z,4
2017-12-22T05:37:37.398Z,4
2017-12-22T05:38:17.973Z,4
2017-12-22T05:38:58.600Z,4
2017-12-22T05:39:39.180Z,4
2017-12-22T05:40:19.786Z,4
2017-12-22T05:41:00.363Z,4
2017-12-22T05:41:40.935Z,4
2017-12-22T05:42:21.518Z,4
2017-12-22T05:43:02.091Z,4
2017-12-22T05:43:42.674Z,4
2017-12-22T05:44:23.244Z,4
2017-12-22T05:45:03.836Z,4
2017-12-22T05:45:44.399Z,4
2017-12-22T05:46:24.959Z,4
2017-12-22T05:47:05.532Z,4
2017-12-22T05:47:46.094Z,4
2017-12-22T05:48:26.689Z,4
2017-12-22T05:49:07.252Z,4
2017-12-22T05:49:47.842Z,4
2017-12-22T05:50:28.425Z,4
2017-12-22T05:51:08.998Z,4
2017-12-22T05:51:49.560Z,4
2017-12-22T05:52:30.166Z,4
2017-12-22T05:53:10.744Z,4
2017-12-22T05:53:51.308Z,4
2017-12-22T05:54:31.882Z,4
2017-12-22T05:55:12.456Z,4
2017-12-22T05:55:53.027Z,4
2017-12-22T05:56:33.615Z,4
2017-12-22T05:57:14.181Z,4
2017-12-22T05:57:54.772Z,4
2017-12-22T05:58:35.370Z,4
2017-12-22T05:59:15.926Z,4
2017-12-22T05:59:56.502Z,4
2017-12-22T06:00:37.071Z,4
2017-12-22T06:01:17.635Z,4
2017-12-22T06:01:58.222Z,4
2017-12-22T06:02:38.813Z,4
2017-12-22T06:03:19.390Z,4
2017-12-22T06:03:59.963Z,4
2017-12-22T06:04:40.539Z,4
2017-12-22T06:05:21.150Z,4
2017-12-22T06:06:01.742Z,4
2017-12-22T06:06:42.318Z,4
2017-12-22T06:07:22.892Z,0
2017-12-22T06:08:03.459Z,4
2017-12-22T06:08:44.061Z,4
2017-12-22T06:09:24.625Z,4
2017-12-22T06:10:05.198Z,4
2017-12-22T06:10:45.776Z,4
2017-12-22T06:11:26.348Z,4
2017-12-22T06:12:06.952Z,4
2017-12-22T06:12:47.618Z,4
2017-12-22T06:13:28.181Z,4
2017-12-22T06:14:08.773Z,4
2017-12-22T06:14:49.383Z,4
2017-12-22T06:15:29.959Z,4
2017-12-22T06:16:10.526Z,4
2017-12-22T06:16:51.137Z,4
2017-12-22T06:17:31.754Z,4
2017-12-22T06:18:12.491Z,4
2017-12-22T06:18:53.105Z,4
2017-12-22T06:19:33.674Z,4
2017-12-22T06:20:14.242Z,4
2017-12-22T06:20:54.836Z,4
2017-12-22T06:21:35.435Z,4
2017-12-22T06:22:15.999Z,4
2017-12-22T06:22:56.600Z,4
2017-12-22T06:23:37.164Z,4
2017-12-22T06:24:17.732Z,4
2017-12-22T06:24:58.370Z,4
2017-12-22T06:25:38.965Z,4
2017-12-22T06:26:19.584Z,4
2017-12-22T06:27:00.144Z,4
2017-12-22T06:27:40.711Z,4
2017-12-22T06:28:21.279Z,4
2017-12-22T06:29:01.888Z,4
2017-12-22T06:29:42.476Z,4
2017-12-22T06:30:23.057Z,4
2017-12-22T06:31:03.624Z,4
2017-12-22T06:31:44.183Z,0
2017-12-22T06:32:24.793Z,0
2017-12-22T06:33:05.366Z,0
2017-12-22T06:33:45.928Z,0
2017-12-22T06:34:26.501Z,0
2017-12-22T06:35:07.062Z,0
2017-12-22T06:35:47.630Z,0
2017-12-22T06:36:28.200Z,0
2017-12-22T06:37:08.806Z,0
2017-12-22T06:37:49.404Z,0
2017-12-22T06:38:30.043Z,0
2017-12-22T06:39:10.670Z,0
2017-12-22T06:39:51.253Z,0
2017-12-22T06:40:31.826Z,4
2017-12-22T06:41:12.442Z,0
2017-12-22T06:41:52.985Z,4
2017-12-22T06:42:33.541Z,4
2017-12-22T06:43:14.110Z,4
2017-12-22T06:43:54.684Z,4
2017-12-22T06:44:35.284Z,4
2017-12-22T06:45:15.884Z,4
2017-12-22T06:45:56.477Z,4
2017-12-22T06:46:37.046Z,4
2017-12-22T06:47:17.624Z,0
2017-12-22T06:47:58.235Z,4
2017-12-22T06:48:38.763Z,4
2017-12-22T06:49:19.378Z,4
2017-12-22T06:49:59.918Z,4
2017-12-22T06:50:40.512Z,4
2017-12-22T06:51:21.103Z,4
2017-12-22T06:52:01.688Z,4
2017-12-22T06:52:42.249Z,4
2017-12-22T06:53:22.823Z,4
2017-12-22T06:54:03.406Z,4
2017-12-22T06:54:43.980Z,4
2017-12-22T06:55:24.574Z,8
2017-12-22T06:56:05.125Z,4
2017-12-22T06:56:45.687Z,4
2017-12-22T06:57:26.269Z,4
2017-12-22T06:58:06.867Z,4
2017-12-22T06:58:47.446Z,8
2017-12-22T06:59:28.026Z,8
2017-12-22T07:00:08.611Z,8
2017-12-22T07:00:49.225Z,8
2017-12-22T07:01:29.818Z,8
2017-12-22T07:02:10.388Z,8
2017-12-22T07:02:50.959Z,8
2017-12-22T07:03:31.537Z,12
2017-12-22T07:04:12.124Z,8
2017-12-22T07:04:52.715Z,12
2017-12-22T07:05:33.300Z,12
2017-12-22T07:06:13.892Z,12
2017-12-22T07:06:54.473Z,12
2017-12-22T07:07:35.031Z,16
2017-12-22T07:08:15.647Z,16
2017-12-22T07:08:56.210Z,20
2017-12-22T07:09:36.797Z,16
2017-12-22T07:10:17.359Z,20
2017-12-22T07:10:57.947Z,20
2017-12-22T07:11:38.493Z,24
2017-12-22T07:12:19.068Z,24
2017-12-22T07:12:59.643Z,24
2017-12-22T07:13:40.257Z,28
2017-12-22T07:14:20.829Z,32
2017-12-22T07:15:01.408Z,32
2017-12-22T07:15:42.009Z,32
2017-12-22T07:16:22.570Z,36
2017-12-22T07:17:03.144Z,40
2017-12-22T07:17:43.720Z,40
2017-12-22T07:18:24.295Z,44
2017-12-22T07:19:04.861Z,52
2017-12-22T07:19:45.454Z,56
2017-12-22T07:20:26.039Z,64
2017-12-22T07:21:06.631Z,72
2017-12-22T07:21:47.209Z,80
2017-12-22T07:22:27.771Z,84
2017-12-22T07:23:08.336Z,84
2017-12-22T07:23:48.937Z,84
2017-12-22T07:24:29.556Z,84
2017-12-22T07:25:10.120Z,92
2017-12-22T07:25:50.692Z,100
2017-12-22T07:26:31.298Z,104
2017-12-22T07:27:11.997Z,120
2017-12-22T07:27:52.604Z,124
2017-12-22T07:28:33.170Z,128
2017-12-22T07:29:13.786Z,136
2017-12-22T07:29:54.365Z,140
2017-12-22T07:30:34.967Z,140
2017-12-22T07:31:15.528Z,140
2017-12-22T07:31:56.093Z,140
2017-12-22T07:32:36.688Z,140
2017-12-22T07:33:17.298Z,132
2017-12-22T07:33:57.860Z,128
2017-12-22T07:34:38.416Z,132
2017-12-22T07:35:19.011Z,140
2017-12-22T07:35:59.619Z,148
2017-12-22T07:36:40.204Z,164
2017-12-22T07:37:20.766Z,168
2017-12-22T07:38:01.341Z,168
2017-12-22T07:38:41.916Z,168
2017-12-22T07:39:22.478Z,172
2017-12-22T07:40:03.045Z,176
2017-12-22T07:40:43.621Z,184
2017-12-22T07:41:24.210Z,180
2017-12-22T07:42:04.780Z,180
2017-12-22T07:42:45.348Z,176
2017-12-22T07:43:25.932Z,188
2017-12-22T07:44:06.501Z,196
2017-12-22T07:44:47.073Z,200
2017-12-22T07:45:27.651Z,204
2017-12-22T07:46:08.223Z,204
2017-12-22T07:46:48.812Z,220
2017-12-22T07:47:29.407Z,232
2017-12-22T07:48:10.006Z,244
2017-12-22T07:48:50.633Z,264
2017-12-22T07:49:31.219Z,288
2017-12-22T07:50:11.820Z,312
2017-12-22T07:50:52.383Z,324
2017-12-22T07:51:32.990Z,336
2017-12-22T07:52:13.572Z,352
2017-12-22T07:52:54.179Z,368
2017-12-22T07:53:34.768Z,380
2017-12-22T07:54:15.337Z,388
2017-12-22T07:54:55.932Z,408
2017-12-22T07:55:36.496Z,424
2017-12-22T07:56:17.079Z,428
2017-12-22T07:56:57.675Z,432
2017-12-22T07:57:38.238Z,424
2017-12-22T07:58:18.867Z,420
2017-12-22T07:58:59.445Z,420
2017-12-22T07:59:40.046Z,420
2017-12-22T08:00:20.649Z,412
2017-12-22T08:01:01.222Z,400
2017-12-22T08:01:41.796Z,380
2017-12-22T08:02:22.367Z,368
2017-12-22T08:03:02.968Z,364
2017-12-22T08:03:43.549Z,356
2017-12-22T08:04:24.161Z,344
2017-12-22T08:05:04.779Z,340
2017-12-22T08:05:45.374Z,332
2017-12-22T08:06:25.983Z,328
2017-12-22T08:07:06.583Z,320
2017-12-22T08:07:47.164Z,324
2017-12-22T08:08:27.722Z,320
2017-12-22T08:09:08.314Z,320
2017-12-22T08:09:48.881Z,316
2017-12-22T08:10:29.452Z,340
2017-12-22T08:11:10.020Z,368
2017-12-22T08:11:50.651Z,380
2017-12-22T08:12:31.272Z,384
2017-12-22T08:13:11.832Z,400
2017-12-22T08:13:52.433Z,408
2017-12-22T08:14:33.028Z,408
2017-12-22T08:15:13.582Z,404
2017-12-22T08:15:54.161Z,412
2017-12-22T08:16:34.735Z,424
2017-12-22T08:17:15.293Z,464
2017-12-22T08:17:55.902Z,484
2017-12-22T08:18:36.471Z,500
2017-12-22T08:19:17.096Z,508
2017-12-22T08:19:57.693Z,524
2017-12-22T08:20:38.302Z,544
2017-12-22T08:21:18.904Z,568
2017-12-22T08:21:59.482Z,592
2017-12-22T08:22:40.064Z,612
2017-12-22T08:23:20.631Z,632
2017-12-22T08:24:01.202Z,636
2017-12-22T08:24:41.776Z,640
2017-12-22T08:25:22.336Z,640
2017-12-22T08:26:02.923Z,652
2017-12-22T08:26:43.494Z,656
2017-12-22T08:27:24.077Z,664
2017-12-22T08:28:04.643Z,676
2017-12-22T08:28:45.216Z,696
2017-12-22T08:29:25.822Z,720
2017-12-22T08:30:06.401Z,752
2017-12-22T08:30:47.017Z,760
2017-12-22T08:31:27.614Z,732
2017-12-22T08:32:08.203Z,696
2017-12-22T08:32:48.812Z,656
2017-12-22T08:33:29.416Z,628
2017-12-22T08:34:10.013Z,616
2017-12-22T08:34:50.602Z,628
2017-12-22T08:35:31.173Z,652
2017-12-22T08:36:11.760Z,660
2017-12-22T08:36:52.364Z,676
2017-12-22T08:37:32.978Z,692
2017-12-22T08:38:13.570Z,728
2017-12-22T08:38:54.167Z,768
2017-12-22T08:39:34.728Z,828
2017-12-22T08:40:15.315Z,904
2017-12-22T08:40:55.887Z,976
2017-12-22T08:41:36.690Z,1040
2017-12-22T08:42:17.293Z,1092
2017-12-22T08:42:57.857Z,1144
2017-12-22T08:43:38.469Z,1176
2017-12-22T08:44:19.106Z,1224
2017-12-22T08:44:59.685Z,1264
2017-12-22T08:45:40.248Z,1260
2017-12-22T08:46:20.818Z,1236
2017-12-22T08:47:01.394Z,1176
2017-12-22T08:47:41.964Z,1152
2017-12-22T08:48:22.548Z,1124
2017-12-22T08:49:03.144Z,1056
2017-12-22T08:49:43.725Z,992
2017-12-22T08:50:24.338Z,936
2017-12-22T08:51:04.914Z,876
2017-12-22T08:51:45.529Z,824
2017-12-22T08:52:26.116Z,788
2017-12-22T08:53:06.714Z,728
2017-12-22T08:53:47.306Z,664
2017-12-22T08:54:27.870Z,644
2017-12-22T08:55:08.516Z,632
2017-12-22T08:55:49.047Z,628
2017-12-22T08:56:29.643Z,636
2017-12-22T08:57:10.221Z,616
2017-12-22T08:57:50.791Z,564
2017-12-22T08:58:31.378Z,524
2017-12-22T08:59:11.994Z,532
2017-12-22T08:59:52.568Z,548
2017-12-22T09:00:33.169Z,552
2017-12-22T09:01:13.760Z,524
2017-12-22T09:01:54.342Z,488
2017-12-22T09:02:34.915Z,460
2017-12-22T09:03:15.503Z,440
2017-12-22T09:03:56.071Z,460
2017-12-22T09:04:36.647Z,472
2017-12-22T09:05:17.241Z,460
2017-12-22T09:05:57.832Z,440
2017-12-22T09:06:38.392Z,436
2017-12-22T09:07:18.956Z,444
2017-12-22T09:07:59.512Z,444
2017-12-22T09:08:40.080Z,472
2017-12-22T09:09:20.669Z,496
2017-12-22T09:10:01.244Z,524
2017-12-22T09:10:41.808Z,560
2017-12-22T09:11:22.384Z,612
2017-12-22T09:12:02.980Z,656
2017-12-22T09:12:43.571Z,740
2017-12-22T09:13:24.169Z,820
2017-12-22T09:14:04.805Z,844
2017-12-22T09:14:45.329Z,856
2017-12-22T09:15:25.891Z,916
2017-12-22T09:16:06.485Z,980
2017-12-22T09:16:47.062Z,1056
2017-12-22T09:17:27.663Z,1140
2017-12-22T09:18:08.244Z,1220
2017-12-22T09:18:48.847Z,1260
2017-12-22T09:19:29.479Z,1288
2017-12-22T09:20:10.051Z,1328
2017-12-22T09:20:50.612Z,1364
2017-12-22T09:21:31.207Z,1352
2017-12-22T09:22:11.776Z,1288
2017-12-22T09:22:52.345Z,1196
2017-12-22T09:23:32.925Z,1080
2017-12-22T09:24:13.497Z,984
2017-12-22T09:24:54.067Z,980
2017-12-22T09:25:34.636Z,980
2017-12-22T09:26:15.209Z,1024
2017-12-22T09:26:55.770Z,1088
2017-12-22T09:27:36.369Z,1188
2017-12-22T09:28:16.930Z,1236
2017-12-22T09:28:57.492Z,1288
2017-12-22T09:29:38.073Z,1276
2017-12-22T09:30:18.699Z,1264
2017-12-22T09:30:59.272Z,1272
2017-12-22T09:31:39.848Z,1304
2017-12-22T09:32:20.443Z,1376
2017-12-22T09:33:01.035Z,1436
2017-12-22T09:33:41.608Z,1352
2017-12-22T09:34:22.178Z,1180
2017-12-22T09:35:02.749Z,1160
2017-12-22T09:35:43.363Z,1200
2017-12-22T09:36:23.929Z,1236
2017-12-22T09:37:04.506Z,1264
2017-12-22T09:37:45.115Z,1272
2017-12-22T09:38:25.717Z,1264
2017-12-22T09:39:06.293Z,1264
2017-12-22T09:39:46.870Z,1260
2017-12-22T09:40:27.489Z,1252
2017-12-22T09:41:08.103Z,1188
2017-12-22T09:41:48.680Z,1188
2017-12-22T09:42:29.242Z,1244
2017-12-22T09:43:09.811Z,1276
2017-12-22T09:43:50.374Z,1252
2017-12-22T09:44:30.969Z,1252
2017-12-22T09:45:11.544Z,1256
2017-12-22T09:45:52.189Z,1224
2017-12-22T09:46:32.724Z,1276
2017-12-22T09:47:13.269Z,1332